sensor_id;sensor_type;location;lat;lon;timestamp;P1;durP1;ratioP1;P2;durP2;ratioP2
40252;SDS011;25972;51.854;4.534;2023-07-20T00:00:24;4.70;;;1.77;;
40252;SDS011;25972;51.854;4.534;2023-07-20T00:02:50;5.82;;;1.63;;
40252;SDS011;25972;51.854;4.534;2023-07-20T00:05:18;3.50;;;1.73;;
40252;SDS011;25972;51.854;4.534;2023-07-20T00:07:46;3.50;;;1.80;;
40252;SDS011;25972;51.854;4.534;2023-07-20T00:10:12;3.20;;;1.58;;
40252;SDS011;25972;51.854;4.534;2023-07-20T00:12:40;3.50;;;1.67;;
40252;SDS011;25972;51.854;4.534;2023-07-20T00:15:06;4.90;;;1.90;;
40252;SDS011;25972;51.854;4.534;2023-07-20T00:17:33;6.70;;;2.35;;
40252;SDS011;25972;51.854;4.534;2023-07-20T00:19:58;4.85;;;2.10;;
40252;SDS011;25972;51.854;4.534;2023-07-20T00:22:26;5.57;;;2.45;;
40252;SDS011;25972;51.854;4.534;2023-07-20T00:24:52;6.50;;;2.38;;
40252;SDS011;25972;51.854;4.534;2023-07-20T00:27:18;6.18;;;2.55;;
40252;SDS011;25972;51.854;4.534;2023-07-20T00:29:44;4.60;;;2.22;;
40252;SDS011;25972;51.854;4.534;2023-07-20T00:32:11;8.38;;;2.60;;
40252;SDS011;25972;51.854;4.534;2023-07-20T00:34:37;4.22;;;2.17;;
40252;SDS011;25972;51.854;4.534;2023-07-20T00:37:04;7.63;;;2.53;;
40252;SDS011;25972;51.854;4.534;2023-07-20T00:39:31;7.72;;;2.97;;
40252;SDS011;25972;51.854;4.534;2023-07-20T00:41:58;6.38;;;2.40;;
40252;SDS011;25972;51.854;4.534;2023-07-20T00:44:24;5.00;;;2.40;;
40252;SDS011;25972;51.854;4.534;2023-07-20T00:46:50;8.75;;;2.83;;
40252;SDS011;25972;51.854;4.534;2023-07-20T00:49:16;5.78;;;2.58;;
40252;SDS011;25972;51.854;4.534;2023-07-20T00:51:46;6.07;;;2.38;;
40252;SDS011;25972;51.854;4.534;2023-07-20T00:54:14;5.32;;;2.50;;
40252;SDS011;25972;51.854;4.534;2023-07-20T00:56:43;5.25;;;2.38;;
40252;SDS011;25972;51.854;4.534;2023-07-20T00:59:12;4.45;;;2.05;;
40252;SDS011;25972;51.854;4.534;2023-07-20T01:01:38;5.63;;;2.20;;
40252;SDS011;25972;51.854;4.534;2023-07-20T01:04:05;4.93;;;2.40;;
40252;SDS011;25972;51.854;4.534;2023-07-20T01:06:34;6.35;;;2.33;;
40252;SDS011;25972;51.854;4.534;2023-07-20T01:09:09;6.97;;;2.30;;
40252;SDS011;25972;51.854;4.534;2023-07-20T01:11:40;5.10;;;2.33;;
40252;SDS011;25972;51.854;4.534;2023-07-20T01:14:14;4.55;;;2.13;;
40252;SDS011;25972;51.854;4.534;2023-07-20T01:16:42;5.05;;;2.40;;
40252;SDS011;25972;51.854;4.534;2023-07-20T01:19:08;5.78;;;2.35;;
40252;SDS011;25972;51.854;4.534;2023-07-20T01:21:37;4.57;;;2.50;;
40252;SDS011;25972;51.854;4.534;2023-07-20T01:27:29;5.13;;;2.38;;
40252;SDS011;25972;51.854;4.534;2023-07-20T01:30:25;6.45;;;2.47;;
40252;SDS011;25972;51.854;4.534;2023-07-20T01:33:10;5.07;;;2.33;;
40252;SDS011;25972;51.854;4.534;2023-07-20T01:35:39;3.45;;;2.15;;
40252;SDS011;25972;51.854;4.534;2023-07-20T01:38:09;6.95;;;2.30;;
40252;SDS011;25972;51.854;4.534;2023-07-20T01:40:36;4.63;;;2.40;;
40252;SDS011;25972;51.854;4.534;2023-07-20T01:43:03;3.83;;;2.17;;
40252;SDS011;25972;51.854;4.534;2023-07-20T01:45:29;8.38;;;2.20;;
40252;SDS011;25972;51.854;4.534;2023-07-20T01:47:56;7.47;;;2.30;;
40252;SDS011;25972;51.854;4.534;2023-07-20T01:50:25;4.75;;;2.20;;
40252;SDS011;25972;51.854;4.534;2023-07-20T01:52:51;4.00;;;2.17;;
40252;SDS011;25972;51.854;4.534;2023-07-20T01:55:18;5.80;;;2.20;;
40252;SDS011;25972;51.854;4.534;2023-07-20T01:57:44;5.28;;;2.08;;
40252;SDS011;25972;51.854;4.534;2023-07-20T02:00:10;5.18;;;2.30;;
40252;SDS011;25972;51.854;4.534;2023-07-20T02:02:41;4.65;;;2.35;;
40252;SDS011;25972;51.854;4.534;2023-07-20T02:05:07;6.07;;;2.17;;
40252;SDS011;25972;51.854;4.534;2023-07-20T02:07:35;4.60;;;2.22;;
40252;SDS011;25972;51.854;4.534;2023-07-20T02:10:01;4.45;;;2.05;;
40252;SDS011;25972;51.854;4.534;2023-07-20T02:12:27;4.40;;;1.90;;
40252;SDS011;25972;51.854;4.534;2023-07-20T02:14:53;4.28;;;1.73;;
40252;SDS011;25972;51.854;4.534;2023-07-20T02:17:19;2.75;;;1.67;;
40252;SDS011;25972;51.854;4.534;2023-07-20T02:19:45;4.05;;;1.70;;
40252;SDS011;25972;51.854;4.534;2023-07-20T02:22:14;1.88;;;1.25;;
40252;SDS011;25972;51.854;4.534;2023-07-20T02:24:43;5.93;;;1.58;;
40252;SDS011;25972;51.854;4.534;2023-07-20T02:27:09;3.15;;;1.35;;
40252;SDS011;25972;51.854;4.534;2023-07-20T02:29:35;4.55;;;1.50;;
40252;SDS011;25972;51.854;4.534;2023-07-20T02:32:01;1.77;;;1.30;;
40252;SDS011;25972;51.854;4.534;2023-07-20T02:34:27;1.98;;;1.30;;
40252;SDS011;25972;51.854;4.534;2023-07-20T02:36:54;3.15;;;1.58;;
40252;SDS011;25972;51.854;4.534;2023-07-20T02:39:24;2.22;;;1.30;;
40252;SDS011;25972;51.854;4.534;2023-07-20T02:41:51;3.70;;;1.40;;
40252;SDS011;25972;51.854;4.534;2023-07-20T02:44:17;2.85;;;1.30;;
40252;SDS011;25972;51.854;4.534;2023-07-20T02:46:43;4.00;;;1.30;;
40252;SDS011;25972;51.854;4.534;2023-07-20T02:49:09;1.77;;;1.33;;
40252;SDS011;25972;51.854;4.534;2023-07-20T02:51:35;1.48;;;1.00;;
40252;SDS011;25972;51.854;4.534;2023-07-20T02:54:01;2.95;;;1.38;;
40252;SDS011;25972;51.854;4.534;2023-07-20T02:56:28;2.10;;;1.23;;
40252;SDS011;25972;51.854;4.534;2023-07-20T02:58:56;2.70;;;1.30;;
40252;SDS011;25972;51.854;4.534;2023-07-20T03:01:22;5.82;;;1.25;;
40252;SDS011;25972;51.854;4.534;2023-07-20T03:03:48;2.58;;;1.30;;
40252;SDS011;25972;51.854;4.534;2023-07-20T03:06:15;1.52;;;1.10;;
40252;SDS011;25972;51.854;4.534;2023-07-20T03:08:41;2.53;;;1.20;;
40252;SDS011;25972;51.854;4.534;2023-07-20T03:11:10;2.67;;;1.10;;
40252;SDS011;25972;51.854;4.534;2023-07-20T03:13:36;4.68;;;1.30;;
40252;SDS011;25972;51.854;4.534;2023-07-20T03:16:04;2.35;;;1.48;;
40252;SDS011;25972;51.854;4.534;2023-07-20T03:18:30;1.45;;;1.10;;
40252;SDS011;25972;51.854;4.534;2023-07-20T03:20:57;1.80;;;1.17;;
40252;SDS011;25972;51.854;4.534;2023-07-20T03:23:24;5.00;;;1.40;;
40252;SDS011;25972;51.854;4.534;2023-07-20T03:25:51;1.40;;;1.30;;
40252;SDS011;25972;51.854;4.534;2023-07-20T03:28:20;1.63;;;1.15;;
40252;SDS011;25972;51.854;4.534;2023-07-20T03:30:46;2.13;;;1.13;;
40252;SDS011;25972;51.854;4.534;2023-07-20T03:33:19;1.65;;;1.10;;
40252;SDS011;25972;51.854;4.534;2023-07-20T03:35:45;1.27;;;1.15;;
40252;SDS011;25972;51.854;4.534;2023-07-20T03:38:11;2.10;;;1.13;;
40252;SDS011;25972;51.854;4.534;2023-07-20T03:40:37;2.17;;;1.30;;
40252;SDS011;25972;51.854;4.534;2023-07-20T03:43:03;1.90;;;1.10;;
40252;SDS011;25972;51.854;4.534;2023-07-20T03:45:29;1.98;;;1.50;;
40252;SDS011;25972;51.854;4.534;2023-07-20T03:47:55;2.45;;;1.05;;
40252;SDS011;25972;51.854;4.534;2023-07-20T03:50:23;2.25;;;1.20;;
40252;SDS011;25972;51.854;4.534;2023-07-20T03:52:49;3.40;;;1.27;;
40252;SDS011;25972;51.854;4.534;2023-07-20T03:55:15;1.75;;;1.25;;
40252;SDS011;25972;51.854;4.534;2023-07-20T03:57:41;2.05;;;1.20;;
40252;SDS011;25972;51.854;4.534;2023-07-20T04:00:08;2.47;;;1.23;;
40252;SDS011;25972;51.854;4.534;2023-07-20T04:02:38;4.45;;;1.38;;
40252;SDS011;25972;51.854;4.534;2023-07-20T04:05:04;4.35;;;1.30;;
40252;SDS011;25972;51.854;4.534;2023-07-20T04:07:32;1.02;;;0.90;;
40252;SDS011;25972;51.854;4.534;2023-07-20T04:09:58;2.63;;;1.30;;
40252;SDS011;25972;51.854;4.534;2023-07-20T04:12:24;3.47;;;1.10;;
40252;SDS011;25972;51.854;4.534;2023-07-20T04:14:50;2.13;;;1.30;;
40252;SDS011;25972;51.854;4.534;2023-07-20T04:17:16;3.45;;;1.35;;
40252;SDS011;25972;51.854;4.534;2023-07-20T04:19:43;3.90;;;1.50;;
40252;SDS011;25972;51.854;4.534;2023-07-20T04:22:09;2.85;;;1.45;;
40252;SDS011;25972;51.854;4.534;2023-07-20T04:24:37;2.78;;;1.33;;
40252;SDS011;25972;51.854;4.534;2023-07-20T04:27:03;2.70;;;1.40;;
40252;SDS011;25972;51.854;4.534;2023-07-20T04:29:29;2.42;;;1.33;;
40252;SDS011;25972;51.854;4.534;2023-07-20T04:31:55;3.63;;;1.23;;
40252;SDS011;25972;51.854;4.534;2023-07-20T04:34:21;3.63;;;1.40;;
40252;SDS011;25972;51.854;4.534;2023-07-20T04:36:47;2.85;;;1.40;;
40252;SDS011;25972;51.854;4.534;2023-07-20T04:39:13;2.72;;;1.60;;
40252;SDS011;25972;51.854;4.534;2023-07-20T04:41:43;3.33;;;1.73;;
40252;SDS011;25972;51.854;4.534;2023-07-20T04:44:09;2.80;;;1.38;;
40252;SDS011;25972;51.854;4.534;2023-07-20T04:46:35;2.13;;;1.40;;
40252;SDS011;25972;51.854;4.534;2023-07-20T04:49:02;2.03;;;1.20;;
40252;SDS011;25972;51.854;4.534;2023-07-20T04:51:32;3.63;;;1.45;;
40252;SDS011;25972;51.854;4.534;2023-07-20T04:53:58;2.60;;;1.52;;
40252;SDS011;25972;51.854;4.534;2023-07-20T04:56:28;3.80;;;1.50;;
40252;SDS011;25972;51.854;4.534;2023-07-20T04:58:57;1.38;;;1.13;;
40252;SDS011;25972;51.854;4.534;2023-07-20T05:01:23;3.53;;;1.10;;
40252;SDS011;25972;51.854;4.534;2023-07-20T05:03:49;3.25;;;1.50;;
40252;SDS011;25972;51.854;4.534;2023-07-20T05:06:15;4.80;;;1.38;;
40252;SDS011;25972;51.854;4.534;2023-07-20T05:08:41;4.60;;;1.58;;
40252;SDS011;25972;51.854;4.534;2023-07-20T05:11:07;3.13;;;1.38;;
40252;SDS011;25972;51.854;4.534;2023-07-20T05:13:34;2.53;;;1.27;;
40252;SDS011;25972;51.854;4.534;2023-07-20T05:16:01;3.45;;;1.40;;
40252;SDS011;25972;51.854;4.534;2023-07-20T05:18:27;2.20;;;1.42;;
40252;SDS011;25972;51.854;4.534;2023-07-20T05:20:53;3.03;;;1.52;;
40252;SDS011;25972;51.854;4.534;2023-07-20T05:23:20;2.30;;;1.38;;
40252;SDS011;25972;51.854;4.534;2023-07-20T05:25:46;3.60;;;1.27;;
40252;SDS011;25972;51.854;4.534;2023-07-20T05:28:12;3.38;;;1.58;;
40252;SDS011;25972;51.854;4.534;2023-07-20T05:30:39;3.15;;;1.20;;
40252;SDS011;25972;51.854;4.534;2023-07-20T05:33:06;2.05;;;1.15;;
40252;SDS011;25972;51.854;4.534;2023-07-20T05:35:33;1.92;;;1.30;;
40252;SDS011;25972;51.854;4.534;2023-07-20T05:37:58;2.95;;;1.45;;
40252;SDS011;25972;51.854;4.534;2023-07-20T05:40:24;2.83;;;1.50;;
40252;SDS011;25972;51.854;4.534;2023-07-20T05:42:51;2.33;;;1.30;;
40252;SDS011;25972;51.854;4.534;2023-07-20T05:45:19;2.75;;;1.20;;
40252;SDS011;25972;51.854;4.534;2023-07-20T05:47:45;1.77;;;1.40;;
40252;SDS011;25972;51.854;4.534;2023-07-20T05:50:13;2.60;;;1.23;;
40252;SDS011;25972;51.854;4.534;2023-07-20T05:52:39;2.47;;;1.38;;
40252;SDS011;25972;51.854;4.534;2023-07-20T05:55:06;3.08;;;1.40;;
40252;SDS011;25972;51.854;4.534;2023-07-20T05:57:32;1.17;;;0.90;;
40252;SDS011;25972;51.854;4.534;2023-07-20T05:59:59;1.55;;;1.20;;
40252;SDS011;25972;51.854;4.534;2023-07-20T06:02:24;0.93;;;0.90;;
40252;SDS011;25972;51.854;4.534;2023-07-20T06:04:50;1.77;;;1.15;;
40252;SDS011;25972;51.854;4.534;2023-07-20T06:07:18;2.40;;;1.25;;
40252;SDS011;25972;51.854;4.534;2023-07-20T06:09:44;3.80;;;1.25;;
40252;SDS011;25972;51.854;4.534;2023-07-20T06:12:09;2.03;;;0.85;;
40252;SDS011;25972;51.854;4.534;2023-07-20T06:14:35;2.10;;;1.10;;
40252;SDS011;25972;51.854;4.534;2023-07-20T06:17:01;2.10;;;1.10;;
40252;SDS011;25972;51.854;4.534;2023-07-20T06:19:28;1.98;;;0.70;;
40252;SDS011;25972;51.854;4.534;2023-07-20T06:21:54;4.38;;;1.08;;
40252;SDS011;25972;51.854;4.534;2023-07-20T06:24:21;1.13;;;0.93;;
40252;SDS011;25972;51.854;4.534;2023-07-20T06:26:47;2.85;;;0.90;;
40252;SDS011;25972;51.854;4.534;2023-07-20T06:29:13;1.45;;;1.15;;
40252;SDS011;25972;51.854;4.534;2023-07-20T06:31:39;3.65;;;1.00;;
40252;SDS011;25972;51.854;4.534;2023-07-20T06:34:05;1.17;;;0.98;;
40252;SDS011;25972;51.854;4.534;2023-07-20T06:36:31;1.10;;;0.88;;
40252;SDS011;25972;51.854;4.534;2023-07-20T06:38:57;1.73;;;0.90;;
40252;SDS011;25972;51.854;4.534;2023-07-20T06:41:24;1.70;;;0.80;;
40252;SDS011;25972;51.854;4.534;2023-07-20T06:43:50;1.65;;;0.80;;
40252;SDS011;25972;51.854;4.534;2023-07-20T06:46:17;2.97;;;0.90;;
40252;SDS011;25972;51.854;4.534;2023-07-20T06:48:43;2.67;;;1.13;;
40252;SDS011;25972;51.854;4.534;2023-07-20T06:51:09;1.73;;;0.93;;
40252;SDS011;25972;51.854;4.534;2023-07-20T06:53:35;3.53;;;1.02;;
40252;SDS011;25972;51.854;4.534;2023-07-20T06:56:01;1.35;;;0.80;;
40252;SDS011;25972;51.854;4.534;2023-07-20T06:58:29;3.05;;;1.10;;
40252;SDS011;25972;51.854;4.534;2023-07-20T07:00:55;4.28;;;1.27;;
40252;SDS011;25972;51.854;4.534;2023-07-20T07:03:21;3.10;;;1.05;;
40252;SDS011;25972;51.854;4.534;2023-07-20T07:05:47;1.65;;;1.00;;
40252;SDS011;25972;51.854;4.534;2023-07-20T07:08:13;3.05;;;1.17;;
40252;SDS011;25972;51.854;4.534;2023-07-20T07:10:38;2.53;;;1.15;;
40252;SDS011;25972;51.854;4.534;2023-07-20T07:13:04;2.60;;;1.40;;
40252;SDS011;25972;51.854;4.534;2023-07-20T07:15:32;2.35;;;1.10;;
40252;SDS011;25972;51.854;4.534;2023-07-20T07:17:58;3.78;;;1.40;;
40252;SDS011;25972;51.854;4.534;2023-07-20T07:20:25;1.27;;;1.08;;
40252;SDS011;25972;51.854;4.534;2023-07-20T07:22:51;4.32;;;1.20;;
40252;SDS011;25972;51.854;4.534;2023-07-20T07:25:18;1.63;;;0.70;;
40252;SDS011;25972;51.854;4.534;2023-07-20T07:27:44;1.10;;;0.80;;
40252;SDS011;25972;51.854;4.534;2023-07-20T07:30:10;1.48;;;0.70;;
40252;SDS011;25972;51.854;4.534;2023-07-20T07:32:39;1.73;;;1.00;;
40252;SDS011;25972;51.854;4.534;2023-07-20T07:35:05;1.70;;;0.80;;
40252;SDS011;25972;51.854;4.534;2023-07-20T07:37:31;2.75;;;0.80;;
40252;SDS011;25972;51.854;4.534;2023-07-20T07:39:57;1.15;;;0.88;;
40252;SDS011;25972;51.854;4.534;2023-07-20T07:42:23;1.10;;;0.68;;
40252;SDS011;25972;51.854;4.534;2023-07-20T07:44:49;1.40;;;0.98;;
40252;SDS011;25972;51.854;4.534;2023-07-20T07:47:15;1.23;;;0.90;;
40252;SDS011;25972;51.854;4.534;2023-07-20T07:49:42;0.88;;;0.82;;
40252;SDS011;25972;51.854;4.534;2023-07-20T07:52:08;1.20;;;0.95;;
40252;SDS011;25972;51.854;4.534;2023-07-20T07:54:34;2.92;;;1.10;;
40252;SDS011;25972;51.854;4.534;2023-07-20T07:57:00;0.98;;;0.90;;
40252;SDS011;25972;51.854;4.534;2023-07-20T07:59:26;1.58;;;1.10;;
40252;SDS011;25972;51.854;4.534;2023-07-20T08:01:52;1.15;;;0.88;;
40252;SDS011;25972;51.854;4.534;2023-07-20T08:04:18;1.45;;;1.00;;
40252;SDS011;25972;51.854;4.534;2023-07-20T08:06:46;2.78;;;1.00;;
40252;SDS011;25972;51.854;4.534;2023-07-20T08:09:12;1.52;;;1.05;;
40252;SDS011;25972;51.854;4.534;2023-07-20T08:11:38;2.40;;;0.90;;
40252;SDS011;25972;51.854;4.534;2023-07-20T08:14:05;1.83;;;1.42;;
40252;SDS011;25972;51.854;4.534;2023-07-20T08:16:31;1.17;;;0.80;;
40252;SDS011;25972;51.854;4.534;2023-07-20T08:18:57;1.35;;;0.80;;
40252;SDS011;25972;51.854;4.534;2023-07-20T08:21:23;1.17;;;0.90;;
40252;SDS011;25972;51.854;4.534;2023-07-20T08:23:50;2.45;;;1.00;;
40252;SDS011;25972;51.854;4.534;2023-07-20T08:26:16;0.75;;;0.75;;
40252;SDS011;25972;51.854;4.534;2023-07-20T08:28:43;1.00;;;0.77;;
40252;SDS011;25972;51.854;4.534;2023-07-20T08:31:10;1.55;;;0.70;;
40252;SDS011;25972;51.854;4.534;2023-07-20T08:33:36;1.88;;;0.90;;
40252;SDS011;25972;51.854;4.534;2023-07-20T08:36:02;1.73;;;0.90;;
40252;SDS011;25972;51.854;4.534;2023-07-20T08:38:29;1.40;;;0.90;;
40252;SDS011;25972;51.854;4.534;2023-07-20T08:40:56;1.08;;;0.85;;
40252;SDS011;25972;51.854;4.534;2023-07-20T08:43:25;1.27;;;0.95;;
40252;SDS011;25972;51.854;4.534;2023-07-20T08:45:54;1.67;;;1.13;;
40252;SDS011;25972;51.854;4.534;2023-07-20T08:48:23;3.00;;;1.10;;
40252;SDS011;25972;51.854;4.534;2023-07-20T08:50:52;2.42;;;0.98;;
40252;SDS011;25972;51.854;4.534;2023-07-20T08:53:22;1.67;;;0.90;;
40252;SDS011;25972;51.854;4.534;2023-07-20T08:55:50;1.63;;;0.82;;
40252;SDS011;25972;51.854;4.534;2023-07-20T08:58:19;3.33;;;0.95;;
40252;SDS011;25972;51.854;4.534;2023-07-20T09:00:45;1.35;;;1.00;;
40252;SDS011;25972;51.854;4.534;2023-07-20T09:03:15;1.27;;;0.90;;
40252;SDS011;25972;51.854;4.534;2023-07-20T09:05:41;1.98;;;0.90;;
40252;SDS011;25972;51.854;4.534;2023-07-20T09:08:07;1.00;;;0.90;;
40252;SDS011;25972;51.854;4.534;2023-07-20T09:10:33;2.88;;;1.00;;
40252;SDS011;25972;51.854;4.534;2023-07-20T09:12:59;1.17;;;0.75;;
40252;SDS011;25972;51.854;4.534;2023-07-20T09:15:29;4.72;;;1.10;;
40252;SDS011;25972;51.854;4.534;2023-07-20T09:17:56;1.00;;;0.80;;
40252;SDS011;25972;51.854;4.534;2023-07-20T09:20:25;3.40;;;1.10;;
40252;SDS011;25972;51.854;4.534;2023-07-20T09:22:52;0.98;;;0.60;;
40252;SDS011;25972;51.854;4.534;2023-07-20T09:25:18;1.33;;;0.90;;
40252;SDS011;25972;51.854;4.534;2023-07-20T09:27:48;1.67;;;0.90;;
40252;SDS011;25972;51.854;4.534;2023-07-20T09:30:15;1.58;;;0.90;;
40252;SDS011;25972;51.854;4.534;2023-07-20T09:32:44;1.67;;;1.10;;
40252;SDS011;25972;51.854;4.534;2023-07-20T09:35:14;2.30;;;0.85;;
40252;SDS011;25972;51.854;4.534;2023-07-20T09:37:45;4.30;;;0.80;;
40252;SDS011;25972;51.854;4.534;2023-07-20T09:40:14;7.18;;;1.08;;
40252;SDS011;25972;51.854;4.534;2023-07-20T09:42:41;0.75;;;0.70;;
40252;SDS011;25972;51.854;4.534;2023-07-20T09:45:08;1.40;;;0.82;;
40252;SDS011;25972;51.854;4.534;2023-07-20T09:47:35;0.90;;;0.75;;
40252;SDS011;25972;51.854;4.534;2023-07-20T09:50:04;2.08;;;0.95;;
40252;SDS011;25972;51.854;4.534;2023-07-20T09:52:36;1.98;;;1.00;;
40252;SDS011;25972;51.854;4.534;2023-07-20T09:55:04;1.13;;;0.80;;
40252;SDS011;25972;51.854;4.534;2023-07-20T09:57:31;1.60;;;0.85;;
40252;SDS011;25972;51.854;4.534;2023-07-20T09:59:58;1.30;;;0.93;;
40252;SDS011;25972;51.854;4.534;2023-07-20T10:02:25;1.77;;;1.00;;
40252;SDS011;25972;51.854;4.534;2023-07-20T10:04:55;0.80;;;0.80;;
40252;SDS011;25972;51.854;4.534;2023-07-20T10:07:25;1.02;;;0.88;;
40252;SDS011;25972;51.854;4.534;2023-07-20T10:09:53;1.35;;;0.90;;
40252;SDS011;25972;51.854;4.534;2023-07-20T10:12:21;2.08;;;1.08;;
40252;SDS011;25972;51.854;4.534;2023-07-20T10:14:51;1.77;;;0.73;;
40252;SDS011;25972;51.854;4.534;2023-07-20T10:17:24;2.72;;;1.08;;
40252;SDS011;25972;51.854;4.534;2023-07-20T10:19:51;1.83;;;1.08;;
40252;SDS011;25972;51.854;4.534;2023-07-20T10:22:24;1.85;;;0.90;;
40252;SDS011;25972;51.854;4.534;2023-07-20T10:24:53;0.95;;;0.90;;
40252;SDS011;25972;51.854;4.534;2023-07-20T10:27:20;1.08;;;0.90;;
40252;SDS011;25972;51.854;4.534;2023-07-20T10:29:46;1.58;;;0.85;;
40252;SDS011;25972;51.854;4.534;2023-07-20T10:32:13;1.55;;;0.98;;
40252;SDS011;25972;51.854;4.534;2023-07-20T10:34:39;2.10;;;1.17;;
40252;SDS011;25972;51.854;4.534;2023-07-20T10:37:05;1.27;;;1.00;;
40252;SDS011;25972;51.854;4.534;2023-07-20T10:39:36;0.98;;;0.93;;
40252;SDS011;25972;51.854;4.534;2023-07-20T10:42:02;1.27;;;0.95;;
40252;SDS011;25972;51.854;4.534;2023-07-20T10:44:29;2.60;;;1.00;;
40252;SDS011;25972;51.854;4.534;2023-07-20T10:46:59;1.42;;;0.90;;
40252;SDS011;25972;51.854;4.534;2023-07-20T10:49:26;0.73;;;0.73;;
40252;SDS011;25972;51.854;4.534;2023-07-20T10:51:57;1.13;;;1.00;;
40252;SDS011;25972;51.854;4.534;2023-07-20T10:54:33;1.13;;;0.90;;
40252;SDS011;25972;51.854;4.534;2023-07-20T10:57:21;1.25;;;0.82;;
40252;SDS011;25972;51.854;4.534;2023-07-20T10:59:49;2.35;;;1.05;;
40252;SDS011;25972;51.854;4.534;2023-07-20T11:02:41;1.85;;;0.68;;
40252;SDS011;25972;51.854;4.534;2023-07-20T11:05:07;1.23;;;0.90;;
40252;SDS011;25972;51.854;4.534;2023-07-20T11:08:00;1.00;;;0.82;;
40252;SDS011;25972;51.854;4.534;2023-07-20T11:10:31;1.38;;;0.90;;
40252;SDS011;25972;51.854;4.534;2023-07-20T11:13:16;2.88;;;1.00;;
40252;SDS011;25972;51.854;4.534;2023-07-20T11:15:46;1.55;;;1.00;;
40252;SDS011;25972;51.854;4.534;2023-07-20T11:18:13;2.08;;;1.00;;
40252;SDS011;25972;51.854;4.534;2023-07-20T11:20:39;3.17;;;0.90;;
40252;SDS011;25972;51.854;4.534;2023-07-20T11:23:06;2.95;;;1.20;;
40252;SDS011;25972;51.854;4.534;2023-07-20T11:25:38;1.08;;;0.90;;
40252;SDS011;25972;51.854;4.534;2023-07-20T11:28:06;1.50;;;0.90;;
40252;SDS011;25972;51.854;4.534;2023-07-20T11:30:33;1.02;;;0.70;;
40252;SDS011;25972;51.854;4.534;2023-07-20T11:32:59;1.00;;;0.80;;
40252;SDS011;25972;51.854;4.534;2023-07-20T11:35:25;1.60;;;0.95;;
40252;SDS011;25972;51.854;4.534;2023-07-20T11:37:51;1.10;;;0.90;;
40252;SDS011;25972;51.854;4.534;2023-07-20T11:40:18;0.70;;;0.70;;
40252;SDS011;25972;51.854;4.534;2023-07-20T11:42:45;1.75;;;0.90;;
40252;SDS011;25972;51.854;4.534;2023-07-20T11:45:11;2.55;;;1.17;;
40252;SDS011;25972;51.854;4.534;2023-07-20T11:47:39;2.22;;;1.20;;
40252;SDS011;25972;51.854;4.534;2023-07-20T11:50:07;3.15;;;1.27;;
40252;SDS011;25972;51.854;4.534;2023-07-20T11:52:34;1.00;;;1.00;;
40252;SDS011;25972;51.854;4.534;2023-07-20T11:55:01;3.38;;;1.30;;
40252;SDS011;25972;51.854;4.534;2023-07-20T11:57:29;1.63;;;1.10;;
40252;SDS011;25972;51.854;4.534;2023-07-20T11:59:57;1.10;;;1.00;;
40252;SDS011;25972;51.854;4.534;2023-07-20T12:02:26;1.35;;;0.98;;
40252;SDS011;25972;51.854;4.534;2023-07-20T12:04:53;3.45;;;1.33;;
40252;SDS011;25972;51.854;4.534;2023-07-20T12:07:20;1.58;;;1.02;;
40252;SDS011;25972;51.854;4.534;2023-07-20T12:10:02;1.08;;;0.82;;
40252;SDS011;25972;51.854;4.534;2023-07-20T12:12:30;1.55;;;1.10;;
40252;SDS011;25972;51.854;4.534;2023-07-20T12:17:51;1.75;;;0.82;;
40252;SDS011;25972;51.854;4.534;2023-07-20T12:20:25;1.67;;;0.98;;
40252;SDS011;25972;51.854;4.534;2023-07-20T12:22:52;2.05;;;1.15;;
40252;SDS011;25972;51.854;4.534;2023-07-20T12:25:20;2.28;;;1.08;;
40252;SDS011;25972;51.854;4.534;2023-07-20T12:27:47;1.17;;;0.95;;
40252;SDS011;25972;51.854;4.534;2023-07-20T12:30:13;1.27;;;1.02;;
40252;SDS011;25972;51.854;4.534;2023-07-20T12:32:40;3.25;;;1.00;;
40252;SDS011;25972;51.854;4.534;2023-07-20T12:35:08;2.03;;;0.85;;
40252;SDS011;25972;51.854;4.534;2023-07-20T12:37:34;2.70;;;0.98;;
40252;SDS011;25972;51.854;4.534;2023-07-20T12:40:00;1.08;;;0.85;;
40252;SDS011;25972;51.854;4.534;2023-07-20T12:42:26;1.17;;;1.05;;
40252;SDS011;25972;51.854;4.534;2023-07-20T12:44:52;1.55;;;0.98;;
40252;SDS011;25972;51.854;4.534;2023-07-20T12:47:18;1.33;;;0.88;;
40252;SDS011;25972;51.854;4.534;2023-07-20T12:49:44;2.67;;;0.90;;
40252;SDS011;25972;51.854;4.534;2023-07-20T12:52:13;1.92;;;0.80;;
40252;SDS011;25972;51.854;4.534;2023-07-20T12:54:39;4.53;;;0.90;;
40252;SDS011;25972;51.854;4.534;2023-07-20T12:57:05;0.60;;;0.60;;
40252;SDS011;25972;51.854;4.534;2023-07-20T12:59:32;5.45;;;0.93;;
40252;SDS011;25972;51.854;4.534;2023-07-20T13:01:58;1.38;;;0.93;;
40252;SDS011;25972;51.854;4.534;2023-07-20T13:04:24;1.27;;;0.80;;
40252;SDS011;25972;51.854;4.534;2023-07-20T13:06:50;2.63;;;1.05;;
40252;SDS011;25972;51.854;4.534;2023-07-20T13:09:17;1.80;;;1.00;;
40252;SDS011;25972;51.854;4.534;2023-07-20T13:11:44;1.98;;;1.20;;
40252;SDS011;25972;51.854;4.534;2023-07-20T13:14:11;1.00;;;0.90;;
40252;SDS011;25972;51.854;4.534;2023-07-20T13:16:37;1.77;;;0.82;;
40252;SDS011;25972;51.854;4.534;2023-07-20T13:19:03;1.80;;;1.00;;
40252;SDS011;25972;51.854;4.534;2023-07-20T13:21:29;4.53;;;1.00;;
40252;SDS011;25972;51.854;4.534;2023-07-20T13:23:55;0.95;;;0.90;;
40252;SDS011;25972;51.854;4.534;2023-07-20T13:26:23;2.10;;;1.00;;
40252;SDS011;25972;51.854;4.534;2023-07-20T13:28:49;1.05;;;0.85;;
40252;SDS011;25972;51.854;4.534;2023-07-20T13:31:17;3.88;;;1.02;;
40252;SDS011;25972;51.854;4.534;2023-07-20T13:33:49;1.17;;;0.80;;
40252;SDS011;25972;51.854;4.534;2023-07-20T13:36:15;1.30;;;0.98;;
40252;SDS011;25972;51.854;4.534;2023-07-20T13:38:41;1.58;;;0.90;;
40252;SDS011;25972;51.854;4.534;2023-07-20T13:41:07;1.35;;;0.88;;
40252;SDS011;25972;51.854;4.534;2023-07-20T13:43:35;1.45;;;0.70;;
40252;SDS011;25972;51.854;4.534;2023-07-20T13:46:00;1.25;;;0.85;;
40252;SDS011;25972;51.854;4.534;2023-07-20T13:48:27;1.08;;;0.85;;
40252;SDS011;25972;51.854;4.534;2023-07-20T13:50:53;2.10;;;0.90;;
40252;SDS011;25972;51.854;4.534;2023-07-20T13:53:21;1.52;;;1.00;;
40252;SDS011;25972;51.854;4.534;2023-07-20T13:55:47;2.50;;;0.90;;
40252;SDS011;25972;51.854;4.534;2023-07-20T13:58:14;2.92;;;1.10;;
40252;SDS011;25972;51.854;4.534;2023-07-20T14:00:42;2.67;;;1.00;;
40252;SDS011;25972;51.854;4.534;2023-07-20T14:03:08;1.58;;;1.00;;
40252;SDS011;25972;51.854;4.534;2023-07-20T14:05:34;1.80;;;1.02;;
40252;SDS011;25972;51.854;4.534;2023-07-20T14:08:03;2.90;;;1.00;;
40252;SDS011;25972;51.854;4.534;2023-07-20T14:10:29;1.38;;;1.00;;
40252;SDS011;25972;51.854;4.534;2023-07-20T14:12:55;2.10;;;1.00;;
40252;SDS011;25972;51.854;4.534;2023-07-20T14:15:21;1.27;;;0.80;;
40252;SDS011;25972;51.854;4.534;2023-07-20T14:17:48;4.15;;;1.25;;
40252;SDS011;25972;51.854;4.534;2023-07-20T14:20:17;1.75;;;1.08;;
40252;SDS011;25972;51.854;4.534;2023-07-20T14:22:44;4.05;;;1.10;;
40252;SDS011;25972;51.854;4.534;2023-07-20T14:25:10;3.95;;;0.98;;
40252;SDS011;25972;51.854;4.534;2023-07-20T14:27:36;2.17;;;1.00;;
40252;SDS011;25972;51.854;4.534;2023-07-20T14:30:02;4.00;;;1.15;;
40252;SDS011;25972;51.854;4.534;2023-07-20T14:32:29;2.75;;;1.20;;
40252;SDS011;25972;51.854;4.534;2023-07-20T14:34:58;1.65;;;0.93;;
40252;SDS011;25972;51.854;4.534;2023-07-20T14:37:24;2.40;;;1.15;;
40252;SDS011;25972;51.854;4.534;2023-07-20T14:39:50;1.83;;;0.88;;
40252;SDS011;25972;51.854;4.534;2023-07-20T14:42:16;2.03;;;1.10;;
40252;SDS011;25972;51.854;4.534;2023-07-20T14:44:43;1.20;;;0.90;;
40252;SDS011;25972;51.854;4.534;2023-07-20T14:47:09;3.80;;;1.10;;
40252;SDS011;25972;51.854;4.534;2023-07-20T14:49:35;0.85;;;0.70;;
40252;SDS011;25972;51.854;4.534;2023-07-20T14:52:03;1.42;;;0.90;;
40252;SDS011;25972;51.854;4.534;2023-07-20T14:54:29;2.80;;;1.10;;